createdAt,value
2018-11-04T00:01:36.791Z,90.50
2018-11-04T00:04:06.131Z,90.50
2018-11-04T00:06:35.469Z,90.60
2018-11-04T00:09:07.018Z,90.60
2018-11-04T00:11:36.313Z,90.70
2018-11-04T00:14:05.706Z,90.80
2018-11-04T00:16:35.312Z,90.80
2018-11-04T00:19:04.753Z,90.90
2018-11-04T00:21:34.068Z,90.80
2018-11-04T00:24:03.424Z,90.90
2018-11-04T00:26:32.730Z,90.90
2018-11-04T00:29:02.074Z,91.00
2018-11-04T00:31:31.372Z,90.90
2018-11-04T00:34:00.639Z,91.00
2018-11-04T00:36:29.888Z,91.00
2018-11-04T00:38:59.178Z,91.10
2018-11-04T00:41:28.419Z,91.20
2018-11-04T00:43:57.611Z,91.20
2018-11-04T00:46:26.860Z,91.30
2018-11-04T00:48:56.124Z,91.40
2018-11-04T00:51:25.375Z,91.40
2018-11-04T00:53:54.708Z,91.50
2018-11-04T00:56:23.977Z,91.60
2018-11-04T00:58:53.248Z,91.60
2018-11-04T01:01:22.612Z,91.60
2018-11-04T01:03:51.888Z,91.70
2018-11-04T01:06:21.134Z,91.80
2018-11-04T01:08:50.413Z,91.90
2018-11-04T01:11:19.644Z,91.90
2018-11-04T01:13:48.992Z,91.50
2018-11-04T01:16:18.233Z,91.30
2018-11-04T01:18:47.442Z,91.20
2018-11-04T01:21:16.743Z,91.20
2018-11-04T01:23:46.064Z,91.20
2018-11-04T01:26:15.341Z,91.20
2018-11-04T01:28:44.631Z,91.50
2018-11-04T01:31:13.966Z,91.20
2018-11-04T01:33:43.227Z,91.10
2018-11-04T01:36:12.438Z,91.00
2018-11-04T01:38:41.749Z,91.00
2018-11-04T01:41:11.033Z,91.00
2018-11-04T01:43:40.273Z,91.10
2018-11-04T01:46:09.589Z,91.10
2018-11-04T01:48:38.816Z,91.30
2018-11-04T01:51:08.090Z,90.60
2018-11-04T01:53:37.408Z,90.40
2018-11-04T01:56:06.697Z,90.10
2018-11-04T01:58:35.964Z,90.30
2018-11-04T02:01:05.337Z,90.40
2018-11-04T02:03:34.604Z,90.20
2018-11-04T02:06:03.880Z,90.30
2018-11-04T02:08:33.130Z,90.30
2018-11-04T02:11:02.396Z,90.40
2018-11-04T02:13:31.693Z,90.50
2018-11-04T02:16:00.993Z,90.50
2018-11-04T02:18:30.272Z,90.40
2018-11-04T02:20:59.567Z,90.40
2018-11-04T02:23:28.902Z,90.30
2018-11-04T02:25:58.282Z,90.20
2018-11-04T02:28:28.096Z,90.20
2018-11-04T02:30:57.442Z,90.20
2018-11-04T02:33:26.796Z,90.40
2018-11-04T02:35:56.166Z,90.50
2018-11-04T02:38:25.472Z,90.50
2018-11-04T02:40:54.757Z,90.50
2018-11-04T02:43:24.062Z,90.50
2018-11-04T02:45:53.396Z,90.50
2018-11-04T02:48:22.714Z,90.60
2018-11-04T02:50:52.091Z,90.70
2018-11-04T02:53:21.406Z,90.70
2018-11-04T02:55:50.756Z,90.80
2018-11-04T02:58:20.067Z,90.80
2018-11-04T03:00:49.391Z,90.70
2018-11-04T03:03:18.703Z,90.60
2018-11-04T03:05:48.006Z,90.40
2018-11-04T03:08:17.268Z,90.30
2018-11-04T03:10:46.568Z,90.40
2018-11-04T03:13:15.904Z,90.50
2018-11-04T03:15:45.172Z,90.70
2018-11-04T03:18:14.424Z,90.90
2018-11-04T03:20:43.712Z,91.10
2018-11-04T03:23:13.000Z,91.20
2018-11-04T03:25:42.465Z,91.40
2018-11-04T03:28:11.736Z,91.40
2018-11-04T03:30:41.063Z,91.30
2018-11-04T03:33:10.533Z,91.10
2018-11-04T03:35:39.813Z,91.00
2018-11-04T03:38:09.449Z,91.00
2018-11-04T03:40:38.753Z,90.90
2018-11-04T03:43:08.029Z,90.90
2018-11-04T03:45:37.348Z,91.00
2018-11-04T03:48:06.839Z,91.00
2018-11-04T03:50:36.125Z,91.10
2018-11-04T03:53:06.069Z,91.20
2018-11-04T03:55:36.456Z,91.30
2018-11-04T03:58:05.922Z,91.40
2018-11-04T04:00:35.193Z,91.50
2018-11-04T04:03:04.476Z,91.50
2018-11-04T04:05:33.829Z,91.50
2018-11-04T04:08:03.153Z,91.60
2018-11-04T04:10:32.415Z,91.60
2018-11-04T04:13:01.787Z,91.70
2018-11-04T04:15:31.092Z,91.80
2018-11-04T04:18:00.478Z,91.80
2018-11-04T04:20:29.692Z,91.90
2018-11-04T04:22:58.961Z,91.90
2018-11-04T04:25:28.197Z,92.00
2018-11-04T04:27:57.478Z,92.00
2018-11-04T04:30:26.689Z,92.00
2018-11-04T04:32:55.940Z,92.00
2018-11-04T04:35:25.240Z,92.00
2018-11-04T04:37:54.523Z,91.90
2018-11-04T04:40:23.789Z,91.90
2018-11-04T04:42:53.100Z,91.40
2018-11-04T04:45:22.334Z,91.30
2018-11-04T04:47:51.545Z,91.30
2018-11-04T04:50:20.852Z,91.30
2018-11-04T04:52:50.089Z,91.30
2018-11-04T04:55:19.332Z,91.20
2018-11-04T04:57:48.585Z,91.10
2018-11-04T05:00:17.894Z,91.00
2018-11-04T05:02:47.167Z,90.80
2018-11-04T05:05:16.474Z,90.40
2018-11-04T05:07:45.818Z,90.20
2018-11-04T05:10:15.081Z,90.00
2018-11-04T05:12:44.436Z,89.70
2018-11-04T05:15:13.767Z,89.50
2018-11-04T05:17:43.029Z,89.50
2018-11-04T05:20:12.337Z,88.70
2018-11-04T05:22:41.617Z,87.90
2018-11-04T05:25:10.889Z,88.40
2018-11-04T05:27:40.164Z,88.60
2018-11-04T05:30:11.165Z,88.10
2018-11-04T05:32:40.536Z,88.00
2018-11-04T05:35:09.789Z,88.20
2018-11-04T05:37:39.044Z,88.50
2018-11-04T05:40:08.704Z,88.60
2018-11-04T05:42:38.024Z,88.50
2018-11-04T05:45:08.330Z,88.20
2018-11-04T05:47:37.692Z,87.90
2018-11-04T05:50:07.131Z,88.00
2018-11-04T05:52:36.826Z,88.30
2018-11-04T05:55:07.265Z,88.50
2018-11-04T05:57:36.558Z,89.60
2018-11-04T06:00:06.861Z,89.10
2018-11-04T06:02:36.152Z,89.30
2018-11-04T06:05:06.028Z,89.50
2018-11-04T06:07:35.347Z,89.50
2018-11-04T06:10:04.713Z,89.70
2018-11-04T06:12:33.965Z,90.00
2018-11-04T06:15:03.325Z,90.10
2018-11-04T06:17:32.587Z,90.20
2018-11-04T06:20:01.810Z,90.30
2018-11-04T06:22:31.085Z,90.40
2018-11-04T06:25:00.344Z,90.50
2018-11-04T06:27:29.624Z,90.70
2018-11-04T06:29:58.943Z,90.90
2018-11-04T06:32:28.188Z,90.90
2018-11-04T06:34:57.495Z,90.90
2018-11-04T06:37:26.814Z,90.90
2018-11-04T06:39:56.395Z,90.80
2018-11-04T06:42:25.653Z,90.80
2018-11-04T06:44:54.964Z,90.90
2018-11-04T06:47:24.272Z,90.90
2018-11-04T06:49:53.598Z,90.90
2018-11-04T06:52:22.908Z,90.90
2018-11-04T06:54:52.145Z,90.90
2018-11-04T06:57:21.592Z,90.90
2018-11-04T06:59:50.910Z,91.00
2018-11-04T07:02:20.176Z,91.10
2018-11-04T07:04:49.490Z,91.50
2018-11-04T07:07:18.791Z,91.10
2018-11-04T07:09:48.036Z,91.20
2018-11-04T07:12:17.360Z,91.20
2018-11-04T07:14:46.658Z,91.30
2018-11-04T07:17:15.966Z,91.40
2018-11-04T07:19:48.530Z,91.40
2018-11-04T07:22:17.835Z,91.40
2018-11-04T07:24:47.256Z,91.40
2018-11-04T07:27:16.560Z,91.30
2018-11-04T07:29:45.800Z,91.40
2018-11-04T07:32:15.229Z,91.30
2018-11-04T07:34:44.562Z,91.20
2018-11-04T07:37:13.886Z,91.20
2018-11-04T07:39:43.196Z,91.20
2018-11-04T07:42:12.565Z,91.10
2018-11-04T07:44:41.880Z,91.10
2018-11-04T07:47:11.125Z,91.10
2018-11-04T07:49:40.449Z,91.00
2018-11-04T07:52:09.761Z,90.80
2018-11-04T07:54:39.069Z,90.60
2018-11-04T07:57:08.265Z,90.40
2018-11-04T07:59:37.528Z,90.20
2018-11-04T08:02:06.948Z,90.00
2018-11-04T08:04:36.283Z,89.70
2018-11-04T08:07:05.578Z,89.30
2018-11-04T08:09:34.771Z,89.20
2018-11-04T08:12:03.987Z,89.60
2018-11-04T08:14:33.227Z,90.10
2018-11-04T08:17:02.453Z,90.30
2018-11-04T08:19:31.710Z,90.60
2018-11-04T08:22:00.952Z,90.60
2018-11-04T08:24:30.220Z,90.70
2018-11-04T08:26:59.540Z,90.40
2018-11-04T08:29:28.752Z,90.10
2018-11-04T08:31:58.091Z,90.30
2018-11-04T08:34:27.353Z,90.20
2018-11-04T08:36:56.596Z,90.00
2018-11-04T08:39:25.796Z,89.70
2018-11-04T08:41:55.073Z,88.70
2018-11-04T08:44:24.432Z,88.50
2018-11-04T08:46:53.660Z,88.20
2018-11-04T08:49:22.906Z,87.50
2018-11-04T08:51:52.249Z,87.40
2018-11-04T08:54:21.408Z,87.30
2018-11-04T08:56:50.966Z,87.40
2018-11-04T08:59:20.267Z,86.70
2018-11-04T09:01:49.485Z,86.70
2018-11-04T09:04:18.676Z,86.00
2018-11-04T09:06:47.951Z,85.70
2018-11-04T09:09:17.135Z,85.10
2018-11-04T09:11:46.529Z,85.20
2018-11-04T09:14:15.947Z,85.20
2018-11-04T09:16:45.091Z,84.50
2018-11-04T09:19:14.420Z,84.30
2018-11-04T09:21:43.877Z,84.20
2018-11-04T09:24:13.171Z,83.70
2018-11-04T09:26:42.401Z,83.40
2018-11-04T09:29:11.789Z,83.50
2018-11-04T09:31:40.991Z,83.30
2018-11-04T09:34:10.280Z,83.30
2018-11-04T09:36:40.022Z,83.40
2018-11-04T09:39:11.013Z,83.60
2018-11-04T09:41:40.237Z,83.60
2018-11-04T09:44:10.871Z,84.00
2018-11-04T09:46:40.131Z,84.00
2018-11-04T09:49:09.332Z,83.90
2018-11-04T09:51:38.623Z,84.60
2018-11-04T09:54:07.818Z,84.80
2018-11-04T09:56:37.132Z,84.30
2018-11-04T09:59:06.755Z,84.90
2018-11-04T10:01:35.920Z,85.30
2018-11-04T10:04:05.709Z,85.60
2018-11-04T10:06:35.004Z,86.70
2018-11-04T10:09:04.960Z,88.40
2018-11-04T10:11:34.152Z,86.00
2018-11-04T10:14:03.375Z,88.00
2018-11-04T10:16:32.555Z,87.00
2018-11-04T10:19:01.918Z,88.20
2018-11-04T10:21:31.209Z,89.80
2018-11-04T10:24:00.433Z,87.80
2018-11-04T10:26:29.727Z,88.00
2018-11-04T10:28:58.943Z,89.20
2018-11-04T10:31:28.117Z,89.60
2018-11-04T10:33:57.460Z,89.10
2018-11-04T10:36:26.816Z,90.20
2018-11-04T10:38:56.048Z,90.80
2018-11-04T10:41:25.229Z,90.00
2018-11-04T10:43:54.501Z,89.40
2018-11-04T10:46:24.255Z,90.00
2018-11-04T10:48:53.514Z,89.80
2018-11-04T10:51:22.728Z,90.00
2018-11-04T10:53:51.891Z,89.90
2018-11-04T10:56:21.114Z,90.20
2018-11-04T10:58:50.407Z,90.90
2018-11-04T11:01:19.615Z,90.70
2018-11-04T11:03:48.854Z,90.00
2018-11-04T11:06:18.089Z,90.50
2018-11-04T11:08:47.312Z,90.70
2018-11-04T11:11:16.548Z,90.40
2018-11-04T11:13:45.840Z,90.60
2018-11-04T11:16:15.051Z,90.50
2018-11-04T11:18:44.367Z,90.80
2018-11-04T11:21:13.609Z,90.60
2018-11-04T11:23:42.877Z,90.20
2018-11-04T11:26:12.187Z,90.70
2018-11-04T11:28:41.506Z,90.80
2018-11-04T11:31:10.716Z,91.10
2018-11-04T11:33:39.974Z,90.80
2018-11-04T11:36:09.208Z,90.20
2018-11-04T11:38:38.419Z,90.40
2018-11-04T11:41:07.687Z,90.80
2018-11-04T11:43:37.037Z,90.60
2018-11-04T11:46:06.719Z,90.40
2018-11-04T11:48:35.907Z,90.20
2018-11-04T11:51:05.359Z,90.40
2018-11-04T11:53:34.556Z,90.30
2018-11-04T11:56:03.737Z,90.40
2018-11-04T11:58:32.944Z,90.60
2018-11-04T12:01:02.140Z,90.70
2018-11-04T12:03:31.331Z,90.80
2018-11-04T12:06:00.530Z,90.90
2018-11-04T12:08:29.775Z,91.00
2018-11-04T12:10:58.967Z,91.00
2018-11-04T12:13:28.242Z,91.20
2018-11-04T12:15:57.596Z,91.20
2018-11-04T12:18:26.817Z,91.40
2018-11-04T12:20:56.026Z,91.40
2018-11-04T12:23:25.346Z,91.50
2018-11-04T12:25:54.546Z,91.60
2018-11-04T12:28:23.828Z,91.40
2018-11-04T12:30:53.115Z,91.60
2018-11-04T12:33:22.303Z,91.50
2018-11-04T12:35:51.537Z,91.80
2018-11-04T12:38:21.747Z,91.70
2018-11-04T12:40:50.971Z,91.80
2018-11-04T12:43:20.241Z,91.60
2018-11-04T12:45:49.601Z,91.60
2018-11-04T12:48:18.743Z,91.60
2018-11-04T12:50:47.981Z,91.50
2018-11-04T12:53:17.195Z,91.60
2018-11-04T12:55:46.431Z,91.70
2018-11-04T12:58:15.678Z,91.90
2018-11-04T13:00:44.925Z,91.90
2018-11-04T13:03:14.226Z,92.10
2018-11-04T13:05:43.512Z,92.10
2018-11-04T13:08:12.831Z,92.10
2018-11-04T13:10:42.024Z,92.30
2018-11-04T13:13:11.269Z,92.30
2018-11-04T13:15:40.552Z,92.30
2018-11-04T13:18:09.776Z,92.40
2018-11-04T13:20:39.109Z,92.40
2018-11-04T13:23:08.397Z,92.50
2018-11-04T13:25:37.722Z,92.50
2018-11-04T13:28:07.189Z,92.40
2018-11-04T13:30:36.709Z,92.40
2018-11-04T13:33:06.002Z,92.40
2018-11-04T13:35:35.151Z,92.30
2018-11-04T13:38:04.419Z,92.30
2018-11-04T13:40:33.731Z,92.10
2018-11-04T13:43:03.045Z,91.90
2018-11-04T13:45:32.404Z,91.50
2018-11-04T13:48:01.737Z,91.10
2018-11-04T13:50:30.931Z,90.90
2018-11-04T13:53:00.371Z,90.60
2018-11-04T13:55:29.598Z,90.30
2018-11-04T13:57:58.883Z,90.20
2018-11-04T14:00:28.092Z,90.00
2018-11-04T14:02:57.419Z,89.50
2018-11-04T14:05:26.608Z,89.70
2018-11-04T14:07:55.888Z,88.60
2018-11-04T14:10:25.075Z,88.20
2018-11-04T14:12:54.344Z,86.80
2018-11-04T14:15:23.560Z,87.10
2018-11-04T14:17:52.777Z,87.70
2018-11-04T14:20:22.580Z,87.90
2018-11-04T14:22:51.896Z,88.30
2018-11-04T14:25:21.116Z,88.20
2018-11-04T14:27:50.373Z,89.10
2018-11-04T14:30:19.723Z,88.80
2018-11-04T14:32:49.009Z,89.10
2018-11-04T14:35:18.278Z,89.20
2018-11-04T14:37:48.230Z,89.70
2018-11-04T14:40:18.297Z,90.00
2018-11-04T14:42:47.540Z,90.20
2018-11-04T14:45:16.768Z,90.60
2018-11-04T14:47:46.068Z,90.70
2018-11-04T14:50:16.755Z,90.80
2018-11-04T14:52:46.077Z,90.50
2018-11-04T14:55:15.271Z,90.30
2018-11-04T14:57:44.515Z,90.50
2018-11-04T15:00:15.083Z,90.90
2018-11-04T15:02:44.284Z,91.00
2018-11-04T15:05:13.732Z,91.00
2018-11-04T15:07:43.018Z,90.70
2018-11-04T15:10:13.740Z,90.60
2018-11-04T15:12:43.148Z,90.40
2018-11-04T15:15:13.957Z,90.20
2018-11-04T15:17:43.649Z,90.00
2018-11-04T15:20:13.227Z,89.80
2018-11-04T15:22:48.612Z,89.20
2018-11-04T15:25:19.235Z,89.20
2018-11-04T15:27:48.823Z,89.80
2018-11-04T15:30:18.015Z,90.20
2018-11-04T15:32:47.379Z,90.70
2018-11-04T15:35:18.167Z,90.90
2018-11-04T15:37:47.489Z,90.40
2018-11-04T15:40:17.317Z,90.20
2018-11-04T15:42:46.606Z,89.60
2018-11-04T15:45:16.524Z,89.40
2018-11-04T15:47:45.816Z,89.40
2018-11-04T15:50:16.501Z,89.90
2018-11-04T15:52:45.923Z,90.20
2018-11-04T15:55:15.191Z,90.40
2018-11-04T15:57:44.555Z,90.30
2018-11-04T16:00:15.093Z,90.00
2018-11-04T16:02:44.548Z,90.10
2018-11-04T16:05:13.969Z,90.00
2018-11-04T16:07:43.311Z,89.90
2018-11-04T16:10:12.987Z,90.20
2018-11-04T16:12:42.234Z,90.00
2018-11-04T16:15:13.582Z,89.80
2018-11-04T16:17:43.360Z,88.90
2018-11-04T16:20:14.912Z,89.00
2018-11-04T16:22:44.819Z,89.50
2018-11-04T16:25:15.254Z,90.10
2018-11-04T16:27:44.584Z,90.10
2018-11-04T16:30:14.964Z,90.00
2018-11-04T16:32:44.351Z,90.00
2018-11-04T16:35:14.516Z,90.00
2018-11-04T16:37:44.790Z,90.00
2018-11-04T16:40:14.120Z,90.20
2018-11-04T16:42:43.440Z,90.30
2018-11-04T16:45:14.922Z,90.30
2018-11-04T16:47:44.322Z,90.30
2018-11-04T16:50:14.590Z,90.50
2018-11-04T16:52:45.599Z,90.70
2018-11-04T16:55:15.225Z,90.60
2018-11-04T16:57:44.767Z,90.70
2018-11-04T17:00:14.126Z,90.80
2018-11-04T17:02:44.501Z,90.80
2018-11-04T17:05:14.620Z,90.80
2018-11-04T17:07:44.148Z,90.80
2018-11-04T17:10:13.453Z,91.00
2018-11-04T17:12:42.803Z,91.00
2018-11-04T17:15:14.794Z,91.10
2018-11-04T17:17:45.268Z,91.20
2018-11-04T17:20:16.509Z,91.30
2018-11-04T17:22:46.235Z,91.40
2018-11-04T17:25:15.589Z,91.50
2018-11-04T17:27:45.763Z,91.70
2018-11-04T17:30:18.527Z,92.00
2018-11-04T17:32:48.286Z,92.20
2018-11-04T17:35:18.384Z,92.40
2018-11-04T17:37:48.107Z,92.50
2018-11-04T17:40:18.016Z,92.60
2018-11-04T17:42:47.305Z,92.80
2018-11-04T17:45:17.436Z,92.80
2018-11-04T17:47:47.486Z,92.90
2018-11-04T17:50:18.135Z,92.90
2018-11-04T17:52:47.458Z,93.00
2018-11-04T17:55:17.060Z,93.10
2018-11-04T17:57:46.518Z,93.20
2018-11-04T18:00:17.646Z,93.20
2018-11-04T18:02:47.079Z,93.30
2018-11-04T18:05:16.356Z,93.40
2018-11-04T18:07:45.813Z,93.40
2018-11-04T18:10:16.121Z,93.50
2018-11-04T18:12:45.496Z,93.60
2018-11-04T18:15:15.299Z,93.50
2018-11-04T18:17:44.600Z,93.40
2018-11-04T18:20:14.282Z,93.50
2018-11-04T18:22:43.569Z,93.40
2018-11-04T18:25:13.528Z,93.40
2018-11-04T18:27:43.708Z,93.50
2018-11-04T18:30:14.780Z,93.40
2018-11-04T18:32:44.723Z,93.40
2018-11-04T18:35:14.016Z,93.20
2018-11-04T18:37:43.528Z,93.30
2018-11-04T18:40:15.262Z,93.50
2018-11-04T18:42:45.127Z,93.70
2018-11-04T18:45:15.513Z,93.60
2018-11-04T18:47:45.177Z,93.40
2018-11-04T18:50:15.295Z,93.20
2018-11-04T18:52:44.846Z,93.10
2018-11-04T18:55:14.302Z,93.20
2018-11-04T18:57:44.897Z,93.30
2018-11-04T19:00:16.041Z,93.30
2018-11-04T19:02:46.279Z,93.20
2018-11-04T19:05:15.725Z,93.20
2018-11-04T19:07:46.149Z,93.30
2018-11-04T19:10:17.347Z,93.30
2018-11-04T19:12:46.861Z,93.20
2018-11-04T19:15:17.391Z,93.10
2018-11-04T19:17:48.067Z,93.00
2018-11-04T19:20:17.483Z,92.80
2018-11-04T19:22:46.945Z,93.00
2018-11-04T19:25:17.002Z,93.00
2018-11-04T19:27:46.542Z,93.10
2018-11-04T19:30:17.218Z,93.20
2018-11-04T19:32:50.011Z,93.10
2018-11-04T19:35:22.896Z,92.80
2018-11-04T19:37:53.029Z,92.70
2018-11-04T19:40:22.518Z,92.60
2018-11-04T19:42:51.963Z,92.70
2018-11-04T19:45:21.340Z,92.60
2018-11-04T19:47:50.612Z,92.60
2018-11-04T19:50:19.849Z,92.50
2018-11-04T19:52:49.144Z,92.50
2018-11-04T19:55:18.351Z,92.40
2018-11-04T19:57:47.826Z,92.40
2018-11-04T20:00:18.084Z,92.40
2018-11-04T20:02:51.796Z,92.40
2018-11-04T20:05:23.244Z,92.40
2018-11-04T20:07:52.603Z,92.30
2018-11-04T20:10:21.948Z,92.30
2018-11-04T20:12:56.410Z,92.30
2018-11-04T20:15:25.760Z,92.30
2018-11-04T20:17:55.027Z,92.40
2018-11-04T20:20:26.034Z,92.40
2018-11-04T20:22:55.387Z,92.40
2018-11-04T20:25:29.854Z,92.40
2018-11-04T20:27:59.250Z,92.40
2018-11-04T20:30:28.548Z,92.40
2018-11-04T20:33:04.477Z,92.50
2018-11-04T20:35:33.854Z,92.60
2018-11-04T20:38:03.159Z,92.50
2018-11-04T20:40:37.473Z,92.40
2018-11-04T20:43:07.166Z,92.40
2018-11-04T20:45:36.437Z,92.40
2018-11-04T20:48:11.367Z,92.50
2018-11-04T20:50:45.907Z,92.40
2018-11-04T20:53:15.217Z,92.40
2018-11-04T20:55:49.549Z,92.30
2018-11-04T20:58:18.981Z,92.30
2018-11-04T21:00:48.110Z,92.20
2018-11-04T21:03:17.408Z,92.20
2018-11-04T21:05:46.681Z,92.10
2018-11-04T21:08:15.935Z,92.00
2018-11-04T21:10:45.206Z,92.40
2018-11-04T21:13:14.509Z,92.00
2018-11-04T21:15:43.821Z,92.10
2018-11-04T21:18:13.061Z,92.10
2018-11-04T21:20:42.341Z,92.00
2018-11-04T21:23:11.664Z,92.00
2018-11-04T21:25:41.179Z,92.20
2018-11-04T21:28:10.360Z,92.40
2018-11-04T21:30:39.595Z,92.40
2018-11-04T21:33:08.892Z,92.60
2018-11-04T21:35:38.180Z,92.60
2018-11-04T21:38:07.481Z,92.70
2018-11-04T21:40:36.884Z,92.90
2018-11-04T21:43:06.327Z,93.60
2018-11-04T21:45:35.537Z,93.40
2018-11-04T21:48:04.889Z,93.50
2018-11-04T21:50:34.204Z,93.30
2018-11-04T21:53:03.728Z,93.30
2018-11-04T21:55:33.208Z,93.30
2018-11-04T21:58:02.380Z,93.20
2018-11-04T22:00:31.714Z,93.00
2018-11-04T22:03:01.012Z,93.40
2018-11-04T22:05:30.474Z,93.80
2018-11-04T22:07:59.836Z,93.70
2018-11-04T22:10:29.163Z,93.60
2018-11-04T22:12:58.465Z,93.30
2018-11-04T22:15:27.842Z,93.20
2018-11-04T22:17:57.101Z,93.10
2018-11-04T22:20:26.453Z,93.20
2018-11-04T22:22:55.795Z,93.10
2018-11-04T22:25:25.076Z,93.10
2018-11-04T22:27:54.341Z,93.00
2018-11-04T22:30:23.729Z,93.10
2018-11-04T22:32:52.994Z,93.40
2018-11-04T22:35:22.247Z,93.20
2018-11-04T22:37:51.548Z,93.10
2018-11-04T22:40:20.778Z,93.10
2018-11-04T22:42:50.043Z,93.60
2018-11-04T22:45:19.327Z,93.70
2018-11-04T22:47:48.590Z,93.90
2018-11-04T22:50:17.831Z,94.00
2018-11-04T22:52:47.066Z,94.00
2018-11-04T22:55:16.343Z,94.00
2018-11-04T22:57:45.850Z,94.00
2018-11-04T23:00:20.298Z,93.90
2018-11-04T23:02:50.477Z,94.00
2018-11-04T23:05:24.849Z,93.80
2018-11-04T23:07:54.151Z,93.70
2018-11-04T23:10:23.460Z,93.60
2018-11-04T23:12:52.744Z,93.50
2018-11-04T23:15:22.016Z,93.50
2018-11-04T23:17:51.326Z,93.40
2018-11-04T23:20:20.649Z,93.40
2018-11-04T23:22:50.021Z,93.40
2018-11-04T23:25:19.344Z,93.50
2018-11-04T23:27:48.581Z,93.50
2018-11-04T23:30:19.014Z,93.60
2018-11-04T23:32:48.606Z,93.60
2018-11-04T23:35:17.882Z,93.50
2018-11-04T23:37:47.175Z,93.50
2018-11-04T23:40:16.416Z,93.30
2018-11-04T23:42:45.712Z,93.30
2018-11-04T23:45:15.547Z,93.30
2018-11-04T23:47:44.994Z,93.20
2018-11-04T23:50:15.477Z,93.20
2018-11-04T23:52:45.212Z,93.20
2018-11-04T23:55:15.239Z,93.20
2018-11-04T23:57:44.517Z,93.10
